createdAt,value
2019-05-01T00:00:51.989Z,45.70
2019-05-01T00:01:52.002Z,44.30
2019-05-01T00:02:51.949Z,43.80
2019-05-01T00:03:53.645Z,43.60
2019-05-01T00:04:51.966Z,44.10
2019-05-01T00:05:52.013Z,43.60
2019-05-01T00:06:51.981Z,44.60
2019-05-01T00:07:51.937Z,45.40
2019-05-01T00:08:51.903Z,43.60
2019-05-01T00:09:51.872Z,45.90
2019-05-01T00:10:51.885Z,45.20
2019-05-01T00:11:51.864Z,47.80
2019-05-01T00:12:51.897Z,46.20
2019-05-01T00:13:51.821Z,46.10
2019-05-01T00:14:51.803Z,44.80
2019-05-01T00:15:51.829Z,45.00
2019-05-01T00:16:51.814Z,45.90
2019-05-01T00:17:52.155Z,46.30
2019-05-01T00:18:51.774Z,45.20
2019-05-01T00:19:51.764Z,46.10
2019-05-01T00:20:51.764Z,45.30
2019-05-01T00:21:51.757Z,43.90
2019-05-01T00:22:51.768Z,44.30
2019-05-01T00:23:51.727Z,42.90
2019-05-01T00:24:51.697Z,43.90
2019-05-01T00:25:51.693Z,44.70
2019-05-01T00:26:51.677Z,45.10
2019-05-01T00:27:51.707Z,44.30
2019-05-01T00:28:51.662Z,44.90
2019-05-01T00:29:51.672Z,46.20
2019-05-01T00:30:51.633Z,43.50
2019-05-01T00:31:51.655Z,45.70
2019-05-01T00:32:51.701Z,45.40
2019-05-01T00:33:51.786Z,44.80
2019-05-01T00:34:51.610Z,45.00
2019-05-01T00:35:51.584Z,46.10
2019-05-01T00:36:51.576Z,44.10
2019-05-01T00:37:51.597Z,45.60
2019-05-01T00:38:51.609Z,46.20
2019-05-01T00:39:51.531Z,44.40
2019-05-01T00:40:51.529Z,46.10
2019-05-01T00:41:51.603Z,44.70
2019-05-01T00:42:51.549Z,43.50
2019-05-01T00:43:51.524Z,45.50
2019-05-01T00:44:51.499Z,44.40
2019-05-01T00:45:51.463Z,46.70
2019-05-01T00:46:51.449Z,43.70
2019-05-01T00:47:51.490Z,45.30
2019-05-01T00:48:51.535Z,41.90
2019-05-01T00:49:51.429Z,44.80
2019-05-01T00:50:51.435Z,45.70
2019-05-01T00:51:51.419Z,45.40
2019-05-01T00:52:51.470Z,45.50
2019-05-01T00:53:51.417Z,45.10
2019-05-01T00:54:51.379Z,46.50
2019-05-01T00:55:51.367Z,46.90
2019-05-01T00:56:51.363Z,45.20
2019-05-01T00:57:51.393Z,46.00
2019-05-01T00:58:51.399Z,48.30
2019-05-01T00:59:51.526Z,45.70
2019-05-01T01:00:51.319Z,48.60
2019-05-01T01:01:54.157Z,49.40
2019-05-01T01:02:51.345Z,47.50
2019-05-01T01:03:51.269Z,47.60
2019-05-01T01:04:51.288Z,45.50
2019-05-01T01:05:51.253Z,46.50
2019-05-01T01:06:51.240Z,45.70
2019-05-01T01:07:51.313Z,47.20
2019-05-01T01:08:51.217Z,42.20
2019-05-01T01:09:51.209Z,44.10
2019-05-01T01:10:51.374Z,46.10
2019-05-01T01:11:51.201Z,45.40
2019-05-01T01:12:51.205Z,46.90
2019-05-01T01:13:51.230Z,43.50
2019-05-01T01:14:51.154Z,45.50
2019-05-01T01:15:51.144Z,45.10
2019-05-01T01:16:51.159Z,46.10
2019-05-01T01:17:51.155Z,44.80
2019-05-01T01:18:51.109Z,45.50
2019-05-01T01:19:51.284Z,45.70
2019-05-01T01:20:51.172Z,46.00
2019-05-01T01:21:51.117Z,46.10
2019-05-01T01:22:51.148Z,43.70
2019-05-01T01:23:51.150Z,45.20
2019-05-01T01:24:51.893Z,46.50
2019-05-01T01:25:51.173Z,47.80
2019-05-01T01:26:51.080Z,49.60
2019-05-01T01:27:51.115Z,48.30
2019-05-01T01:28:51.017Z,47.80
2019-05-01T01:29:51.001Z,47.00
2019-05-01T01:30:56.435Z,46.90
2019-05-01T01:31:51.979Z,48.20
2019-05-01T01:32:50.979Z,46.60
2019-05-01T01:33:50.941Z,48.70
2019-05-01T01:34:51.053Z,48.10
2019-05-01T01:35:50.919Z,47.40
2019-05-01T01:36:50.961Z,52.70
2019-05-01T01:37:51.130Z,52.70
2019-05-01T01:38:50.903Z,52.40
2019-05-01T01:39:51.025Z,50.60
2019-05-01T01:40:50.950Z,52.40
2019-05-01T01:41:50.864Z,50.80
2019-05-01T01:42:50.969Z,51.90
2019-05-01T01:43:50.829Z,52.40
2019-05-01T01:44:50.954Z,51.40
2019-05-01T01:45:50.888Z,56.80
2019-05-01T01:46:50.895Z,63.90
2019-05-01T01:47:50.875Z,61.70
2019-05-01T01:48:50.917Z,59.40
2019-05-01T01:49:50.761Z,52.30
2019-05-01T01:50:50.781Z,52.90
2019-05-01T01:51:50.849Z,50.70
2019-05-01T01:52:50.879Z,46.70
2019-05-01T01:53:50.769Z,49.10
2019-05-01T01:54:50.719Z,50.30
2019-05-01T01:55:50.760Z,51.20
2019-05-01T01:56:50.727Z,52.40
2019-05-01T01:57:50.691Z,53.20
2019-05-01T01:58:52.794Z,52.80
2019-05-01T01:59:50.699Z,52.80
2019-05-01T02:00:50.678Z,52.80
2019-05-01T02:01:50.635Z,50.90
2019-05-01T02:02:50.661Z,52.30
2019-05-01T02:03:50.807Z,50.30
2019-05-01T02:04:50.601Z,49.90
2019-05-01T02:05:50.590Z,46.00
2019-05-01T02:06:50.607Z,48.60
2019-05-01T02:07:50.581Z,48.90
2019-05-01T02:08:56.583Z,48.20
2019-05-01T02:09:54.235Z,48.80
2019-05-01T02:10:50.569Z,48.80
2019-05-01T02:11:50.533Z,48.80
2019-05-01T02:12:51.775Z,49.50
2019-05-01T02:13:50.587Z,48.00
2019-05-01T02:14:50.502Z,47.00
2019-05-01T02:15:50.642Z,52.60
2019-05-01T02:16:50.532Z,51.10
2019-05-01T02:17:50.488Z,52.20
2019-05-01T02:18:50.496Z,52.40
2019-05-01T02:19:50.527Z,54.30
2019-05-01T02:20:50.482Z,52.80
2019-05-01T02:21:50.535Z,52.30
2019-05-01T02:22:50.416Z,52.20
2019-05-01T02:23:50.429Z,51.90
2019-05-01T02:24:50.459Z,51.60
2019-05-01T02:25:50.528Z,51.70
2019-05-01T02:26:50.363Z,50.90
2019-05-01T02:27:50.433Z,51.90
2019-05-01T02:28:50.426Z,50.60
2019-05-01T02:29:50.529Z,49.20
2019-05-01T02:30:50.324Z,52.90
2019-05-01T02:31:50.295Z,52.60
2019-05-01T02:32:50.298Z,51.40
2019-05-01T02:33:50.434Z,59.90
2019-05-01T02:34:50.333Z,59.70
2019-05-01T02:35:50.267Z,56.70
2019-05-01T02:36:50.276Z,72.40
2019-05-01T02:37:50.367Z,59.50
2019-05-01T02:38:50.310Z,65.40
2019-05-01T02:39:50.279Z,56.90
2019-05-01T02:40:50.449Z,55.10
2019-05-01T02:41:50.252Z,57.60
2019-05-01T02:42:50.185Z,53.30
2019-05-01T02:43:50.222Z,52.40
2019-05-01T02:44:50.223Z,52.10
2019-05-01T02:45:50.172Z,53.80
2019-05-01T02:46:50.231Z,52.50
2019-05-01T02:47:50.164Z,66.80
2019-05-01T02:48:52.828Z,58.60
2019-05-01T02:49:50.135Z,52.00
2019-05-01T02:50:50.194Z,51.40
2019-05-01T02:51:50.088Z,52.60
2019-05-01T02:52:50.110Z,51.10
2019-05-01T02:53:50.104Z,49.80
2019-05-01T02:54:50.040Z,50.30
2019-05-01T02:55:50.300Z,51.30
2019-05-01T02:56:50.029Z,52.30
2019-05-01T02:57:50.076Z,53.70
2019-05-01T02:58:50.188Z,50.20
2019-05-01T02:59:50.047Z,51.80
2019-05-01T03:00:50.034Z,51.90
2019-05-01T03:01:50.153Z,50.30
2019-05-01T03:02:49.993Z,51.50
2019-05-01T03:03:49.984Z,53.40
2019-05-01T03:04:50.048Z,54.80
2019-05-01T03:05:49.953Z,51.00
2019-05-01T03:06:50.052Z,49.00
2019-05-01T03:07:49.907Z,48.10
2019-05-01T03:08:50.006Z,50.40
2019-05-01T03:09:49.906Z,50.90
2019-05-01T03:10:49.928Z,50.10
2019-05-01T03:11:49.990Z,51.90
2019-05-01T03:12:50.055Z,48.90
2019-05-01T03:13:49.880Z,49.70
2019-05-01T03:14:49.863Z,49.60
2019-05-01T03:15:49.943Z,50.70
2019-05-01T03:16:49.837Z,51.30
2019-05-01T03:17:49.825Z,49.60
2019-05-01T03:18:49.963Z,52.20
2019-05-01T03:19:49.781Z,53.10
2019-05-01T03:20:49.866Z,53.70
2019-05-01T03:21:49.808Z,52.50
2019-05-01T03:22:49.744Z,52.20
2019-05-01T03:23:49.815Z,52.40
2019-05-01T03:24:49.725Z,51.60
2019-05-01T03:25:49.726Z,51.70
2019-05-01T03:26:49.684Z,52.00
2019-05-01T03:27:49.698Z,53.60
2019-05-01T03:28:49.705Z,51.90
2019-05-01T03:29:49.660Z,51.30
2019-05-01T03:30:49.655Z,53.20
2019-05-01T03:32:14.588Z,52.80
2019-05-01T03:32:50.620Z,53.00
2019-05-01T03:33:49.663Z,53.30
2019-05-01T03:34:52.594Z,53.40
2019-05-01T03:35:49.601Z,53.60
2019-05-01T03:36:49.618Z,53.70
2019-05-01T03:37:49.565Z,51.40
2019-05-01T03:38:49.611Z,52.20
2019-05-01T03:39:49.661Z,61.70
2019-05-01T03:40:49.543Z,56.50
2019-05-01T03:41:49.518Z,53.00
2019-05-01T03:42:49.540Z,54.40
2019-05-01T03:43:49.551Z,51.00
2019-05-01T03:44:49.514Z,57.10
2019-05-01T03:45:49.482Z,56.00
2019-05-01T03:46:49.517Z,65.00
2019-05-01T03:47:49.522Z,58.30
2019-05-01T03:48:50.178Z,79.10
2019-05-01T03:49:49.548Z,61.20
2019-05-01T03:50:49.434Z,56.70
2019-05-01T03:51:49.483Z,55.10
2019-05-01T03:52:49.429Z,55.00
2019-05-01T03:53:49.445Z,59.20
2019-05-01T03:54:49.446Z,62.20
2019-05-01T03:55:49.366Z,57.30
2019-05-01T03:56:49.421Z,57.10
2019-05-01T03:57:49.374Z,60.10
2019-05-01T03:58:49.364Z,85.90
2019-05-01T03:59:49.370Z,70.90
2019-05-01T04:00:49.318Z,66.20
2019-05-01T04:01:49.302Z,59.60
2019-05-01T04:02:49.319Z,67.20
2019-05-01T04:03:52.176Z,60.00
2019-05-01T04:04:49.442Z,76.00
2019-05-01T04:05:49.270Z,80.70
2019-05-01T04:06:49.247Z,81.50
2019-05-01T04:07:49.274Z,58.20
2019-05-01T04:08:49.247Z,59.80
2019-05-01T04:09:49.256Z,56.00
2019-05-01T04:10:49.228Z,57.50
2019-05-01T04:11:49.194Z,62.60
2019-05-01T04:12:49.200Z,55.60
2019-05-01T04:13:49.223Z,63.00
2019-05-01T04:14:49.194Z,57.70
2019-05-01T04:15:49.208Z,64.30
2019-05-01T04:16:49.138Z,70.20
2019-05-01T04:17:49.126Z,62.40
2019-05-01T04:18:49.122Z,62.00
2019-05-01T04:19:49.217Z,65.30
2019-05-01T04:20:49.110Z,64.60
2019-05-01T04:21:49.130Z,71.00
2019-05-01T04:22:49.071Z,73.40
2019-05-01T04:23:49.660Z,81.30
2019-05-01T04:24:49.076Z,70.20
2019-05-01T04:25:49.076Z,58.90
2019-05-01T04:26:49.029Z,57.90
2019-05-01T04:27:49.026Z,83.80
2019-05-01T04:28:49.012Z,65.30
2019-05-01T04:29:49.029Z,58.90
2019-05-01T04:30:49.012Z,62.40
2019-05-01T04:31:49.059Z,62.30
2019-05-01T04:32:52.483Z,57.90
2019-05-01T04:33:48.962Z,59.10
2019-05-01T04:34:49.002Z,65.10
2019-05-01T04:35:48.948Z,62.80
2019-05-01T04:36:48.966Z,69.60
2019-05-01T04:37:48.915Z,74.70
2019-05-01T04:38:48.903Z,58.60
2019-05-01T04:39:49.035Z,58.80
2019-05-01T04:40:48.899Z,63.10
2019-05-01T04:41:48.874Z,69.30
2019-05-01T04:42:48.875Z,61.70
2019-05-01T04:43:48.853Z,56.30
2019-05-01T04:44:48.903Z,58.00
2019-05-01T04:45:48.823Z,51.90
2019-05-01T04:46:48.842Z,52.40
2019-05-01T04:47:48.865Z,58.90
2019-05-01T04:48:49.672Z,53.60
2019-05-01T04:49:48.773Z,57.60
2019-05-01T04:50:48.894Z,65.10
2019-05-01T04:51:48.791Z,62.20
2019-05-01T04:52:48.740Z,62.60
2019-05-01T04:53:48.739Z,70.40
2019-05-01T04:54:48.711Z,67.40
2019-05-01T04:55:48.806Z,71.20
2019-05-01T04:56:48.716Z,67.90
2019-05-01T04:57:48.679Z,65.60
2019-05-01T04:58:48.685Z,64.30
2019-05-01T04:59:48.723Z,72.70
2019-05-01T05:00:48.693Z,81.00
2019-05-01T05:01:48.678Z,63.10
2019-05-01T05:02:48.627Z,71.10
2019-05-01T05:03:48.748Z,72.80
2019-05-01T05:04:48.619Z,85.30
2019-05-01T05:05:48.650Z,87.60
2019-05-01T05:06:48.619Z,89.50
2019-05-01T05:07:48.609Z,66.00
2019-05-01T05:08:48.575Z,86.20
2019-05-01T05:09:48.570Z,70.70
2019-05-01T05:10:48.570Z,78.50
2019-05-01T05:11:48.535Z,86.70
2019-05-01T05:12:48.566Z,87.70
2019-05-01T05:13:48.585Z,87.00
2019-05-01T05:14:48.501Z,79.80
2019-05-01T05:15:48.519Z,84.70
2019-05-01T05:16:48.500Z,91.40
2019-05-01T05:17:48.479Z,86.00
2019-05-01T05:18:48.504Z,72.80
2019-05-01T05:19:48.478Z,70.00
2019-05-01T05:20:48.504Z,66.20
2019-05-01T05:21:48.453Z,67.10
2019-05-01T05:22:48.407Z,67.10
2019-05-01T05:23:48.427Z,60.60
2019-05-01T05:24:48.390Z,61.20
2019-05-01T05:25:48.473Z,56.90
2019-05-01T05:26:48.365Z,54.30
2019-05-01T05:27:48.357Z,56.30
2019-05-01T05:28:48.349Z,52.80
2019-05-01T05:29:48.377Z,53.50
2019-05-01T05:30:48.351Z,54.30
2019-05-01T05:31:48.329Z,55.40
2019-05-01T05:32:48.307Z,55.30
2019-05-01T05:33:48.348Z,57.40
2019-05-01T05:34:48.341Z,64.70
2019-05-01T05:35:48.289Z,55.20
2019-05-01T05:36:48.270Z,56.80
2019-05-01T05:37:48.267Z,58.20
2019-05-01T05:38:48.247Z,62.10
2019-05-01T05:39:48.226Z,70.40
2019-05-01T05:40:48.219Z,63.30
2019-05-01T05:41:48.279Z,69.20
2019-05-01T05:42:48.199Z,56.60
2019-05-01T05:43:48.209Z,66.00
2019-05-01T05:44:48.178Z,77.30
2019-05-01T05:45:48.163Z,62.30
2019-05-01T05:46:48.198Z,59.90
2019-05-01T05:47:48.139Z,54.70
2019-05-01T05:48:48.146Z,52.20
2019-05-01T05:49:48.164Z,50.80
2019-05-01T05:50:48.100Z,50.20
2019-05-01T05:51:48.119Z,48.60
2019-05-01T05:52:48.080Z,50.60
2019-05-01T05:53:48.065Z,51.50
2019-05-01T05:54:48.079Z,49.60
2019-05-01T05:55:48.093Z,48.00
2019-05-01T05:56:48.061Z,48.00
2019-05-01T05:57:48.025Z,52.00
2019-05-01T05:58:48.022Z,51.40
2019-05-01T05:59:48.031Z,50.70
2019-05-01T06:00:48.003Z,58.70
2019-05-01T06:01:48.006Z,55.70
2019-05-01T06:02:47.978Z,54.50
2019-05-01T06:03:47.965Z,58.10
2019-05-01T06:04:47.942Z,55.20
2019-05-01T06:05:47.933Z,54.40
2019-05-01T06:06:47.985Z,50.30
2019-05-01T06:07:48.019Z,51.80
2019-05-01T06:08:47.923Z,56.50
2019-05-01T06:09:48.540Z,50.40
2019-05-01T06:10:47.875Z,54.40
2019-05-01T06:11:47.911Z,52.90
2019-05-01T06:12:48.601Z,54.20
2019-05-01T06:13:47.889Z,53.70
2019-05-01T06:14:47.835Z,50.60
2019-05-01T06:15:49.163Z,50.30
2019-05-01T06:16:52.045Z,49.50
2019-05-01T06:17:48.805Z,48.40
2019-05-01T06:18:47.808Z,50.00
2019-05-01T06:19:49.642Z,51.80
2019-05-01T06:20:47.790Z,51.90
2019-05-01T06:21:47.753Z,54.20
2019-05-01T06:22:47.765Z,55.40
2019-05-01T06:23:47.773Z,48.10
2019-05-01T06:24:47.719Z,46.60
2019-05-01T06:25:47.727Z,48.00
2019-05-01T06:26:47.697Z,47.70
2019-05-01T06:27:49.207Z,47.00
2019-05-01T06:28:47.671Z,48.90
2019-05-01T06:29:47.659Z,48.90
2019-05-01T06:30:48.879Z,48.20
2019-05-01T06:31:47.677Z,48.00
2019-05-01T06:32:47.664Z,48.10
2019-05-01T06:33:48.634Z,49.00
2019-05-01T06:34:48.603Z,45.30
2019-05-01T06:35:47.628Z,46.50
2019-05-01T06:36:49.745Z,47.50
2019-05-01T06:37:47.635Z,48.00
2019-05-01T06:38:47.587Z,47.20
2019-05-01T06:39:49.669Z,45.80
2019-05-01T06:40:47.545Z,46.80
2019-05-01T06:41:47.541Z,47.80
2019-05-01T06:42:50.137Z,46.20
2019-05-01T06:43:47.529Z,47.50
2019-05-01T06:44:47.493Z,47.40
2019-05-01T06:45:51.694Z,45.30
2019-05-01T06:46:48.501Z,46.20
2019-05-01T06:47:47.461Z,45.90
2019-05-01T06:48:48.834Z,48.30
2019-05-01T06:49:48.434Z,44.70
2019-05-01T06:50:50.317Z,42.40
2019-05-01T06:51:48.086Z,41.50
2019-05-01T06:52:48.439Z,42.10
2019-05-01T06:53:47.447Z,42.60
2019-05-01T06:54:47.767Z,41.60
2019-05-01T06:55:51.310Z,42.90
2019-05-01T06:56:47.513Z,41.10
2019-05-01T06:57:47.405Z,44.40
2019-05-01T06:58:51.050Z,41.40
2019-05-01T06:59:48.398Z,43.60
2019-05-01T07:00:47.343Z,45.00
2019-05-01T07:01:47.329Z,47.20
2019-05-01T07:02:47.303Z,43.90
2019-05-01T07:04:02.811Z,47.90
2019-05-01T07:04:48.287Z,46.50
2019-05-01T07:05:54.197Z,46.30
2019-05-01T07:06:48.263Z,45.70
2019-05-01T07:07:47.988Z,45.00
2019-05-01T07:08:48.316Z,44.50
2019-05-01T07:09:49.382Z,43.30
2019-05-01T07:10:47.261Z,43.50
2019-05-01T07:11:52.281Z,43.70
2019-05-01T07:12:49.129Z,44.40
2019-05-01T07:13:47.204Z,43.80
2019-05-01T07:14:50.831Z,42.90
2019-05-01T07:15:47.441Z,42.60
2019-05-01T07:16:47.207Z,40.90
2019-05-01T07:17:47.799Z,41.80
2019-05-01T07:18:47.168Z,42.20
2019-05-01T07:19:47.115Z,44.60
2019-05-01T07:20:50.965Z,42.80
2019-05-01T07:21:47.115Z,42.30
2019-05-01T07:22:47.093Z,41.40
2019-05-01T07:23:47.862Z,43.20
2019-05-01T07:24:49.092Z,44.40
2019-05-01T07:25:47.042Z,42.70
2019-05-01T07:26:48.113Z,41.80
2019-05-01T07:27:47.089Z,43.60
2019-05-01T07:28:47.089Z,42.20
2019-05-01T07:29:46.997Z,42.90
2019-05-01T07:30:49.998Z,42.90
2019-05-01T07:31:47.976Z,42.30
2019-05-01T07:32:49.693Z,40.60
2019-05-01T07:33:51.114Z,41.50
2019-05-01T07:34:49.007Z,41.20
2019-05-01T07:35:46.932Z,40.80
2019-05-01T07:36:50.178Z,40.80
2019-05-01T07:37:46.911Z,40.30
2019-05-01T07:38:46.991Z,39.90
2019-05-01T07:39:49.868Z,38.90
2019-05-01T07:40:46.884Z,40.70
2019-05-01T07:41:46.913Z,40.30
2019-05-01T07:42:48.251Z,39.80
2019-05-01T07:43:46.888Z,40.70
2019-05-01T07:44:46.863Z,41.10
2019-05-01T07:45:46.831Z,41.50
2019-05-01T07:46:48.796Z,41.90
2019-05-01T07:47:47.942Z,42.70
2019-05-01T07:48:46.826Z,42.60
2019-05-01T07:49:47.765Z,39.00
2019-05-01T07:50:47.877Z,43.00
2019-05-01T07:51:46.781Z,42.30
2019-05-01T07:52:47.637Z,42.30
2019-05-01T07:53:47.779Z,42.70
2019-05-01T07:54:47.279Z,42.60
2019-05-01T07:55:48.657Z,41.60
2019-05-01T07:56:46.693Z,41.50
2019-05-01T07:57:46.690Z,38.80
2019-05-01T07:58:47.614Z,40.80
2019-05-01T07:59:46.663Z,40.40
2019-05-01T08:00:46.735Z,40.00
2019-05-01T08:01:49.895Z,37.30
2019-05-01T08:02:46.663Z,38.20
2019-05-01T08:03:46.667Z,36.00
2019-05-01T08:04:46.618Z,38.20
2019-05-01T08:05:46.767Z,41.60
2019-05-01T08:06:46.607Z,40.20
2019-05-01T08:07:46.575Z,40.40
2019-05-01T08:08:46.581Z,39.90
2019-05-01T08:09:50.340Z,39.10
2019-05-01T08:10:46.539Z,38.80
2019-05-01T08:11:46.561Z,40.30
2019-05-01T08:12:46.642Z,38.40
2019-05-01T08:13:46.596Z,39.10
2019-05-01T08:14:47.685Z,40.20
2019-05-01T08:15:47.482Z,40.10
2019-05-01T08:16:46.514Z,40.30
2019-05-01T08:17:48.769Z,39.40
2019-05-01T08:18:47.561Z,40.30
2019-05-01T08:19:46.459Z,39.80
2019-05-01T08:20:50.434Z,36.90
2019-05-01T08:21:46.408Z,39.60
2019-05-01T08:22:46.437Z,36.80
2019-05-01T08:23:47.107Z,37.00
2019-05-01T08:24:46.461Z,39.00
2019-05-01T08:25:46.365Z,38.00
2019-05-01T08:26:46.390Z,37.40
2019-05-01T08:27:46.367Z,36.40
2019-05-01T08:28:46.331Z,37.10
2019-05-01T08:29:46.368Z,39.50
2019-05-01T08:30:47.982Z,39.90
2019-05-01T08:31:47.334Z,39.90
2019-05-01T08:32:46.372Z,38.90
2019-05-01T08:33:49.958Z,38.50
2019-05-01T08:34:49.196Z,37.20
2019-05-01T08:35:46.312Z,39.10
2019-05-01T08:36:47.265Z,38.20
2019-05-01T08:37:46.231Z,39.80
2019-05-01T08:38:46.333Z,39.50
2019-05-01T08:39:46.280Z,39.10
2019-05-01T08:40:46.221Z,35.20
2019-05-01T08:41:46.188Z,39.00
2019-05-01T08:42:46.183Z,38.90
2019-05-01T08:43:48.858Z,37.70
2019-05-01T08:44:47.215Z,34.70
2019-05-01T08:45:46.193Z,36.80
2019-05-01T08:46:46.866Z,40.00
2019-05-01T08:47:46.157Z,39.00
2019-05-01T08:48:46.111Z,38.20
2019-05-01T08:49:49.468Z,38.90
2019-05-01T08:50:46.081Z,37.90
2019-05-01T08:51:46.082Z,40.10
2019-05-01T08:52:47.478Z,38.70
2019-05-01T08:53:46.069Z,40.20
2019-05-01T08:54:46.076Z,40.30
2019-05-01T08:55:47.128Z,37.90
2019-05-01T08:56:46.033Z,37.30
2019-05-01T08:57:46.031Z,38.70
2019-05-01T08:58:49.498Z,40.30
2019-05-01T08:59:46.023Z,39.60
2019-05-01T09:00:46.013Z,37.70
2019-05-01T09:01:50.581Z,38.50
2019-05-01T09:02:46.992Z,38.70
2019-05-01T09:03:49.677Z,37.70
2019-05-01T09:04:46.986Z,37.00
2019-05-01T09:05:45.923Z,36.60
2019-05-01T09:06:45.918Z,36.00
2019-05-01T09:07:45.996Z,36.20
2019-05-01T09:08:45.931Z,41.10
2019-05-01T09:09:47.401Z,38.00
2019-05-01T09:10:45.871Z,38.20
2019-05-01T09:11:45.870Z,37.40
2019-05-01T09:12:46.887Z,37.30
2019-05-01T09:13:45.907Z,36.00
2019-05-01T09:14:45.859Z,36.40
2019-05-01T09:15:48.307Z,35.00
2019-05-01T09:16:45.842Z,36.80
2019-05-01T09:17:45.787Z,37.90
2019-05-01T09:18:45.801Z,36.90
2019-05-01T09:19:45.817Z,37.40
2019-05-01T09:20:45.789Z,38.40
2019-05-01T09:21:45.749Z,35.40
2019-05-01T09:22:45.771Z,35.30
2019-05-01T09:23:46.302Z,34.60
2019-05-01T09:24:46.741Z,35.90
2019-05-01T09:25:45.727Z,36.20
2019-05-01T09:26:50.262Z,36.00
2019-05-01T09:27:46.685Z,37.20
2019-05-01T09:28:45.669Z,35.50
2019-05-01T09:29:46.836Z,35.50
2019-05-01T09:30:46.640Z,35.50
2019-05-01T09:31:45.637Z,37.10
2019-05-01T09:32:53.945Z,35.80
2019-05-01T09:33:46.613Z,38.20
2019-05-01T09:34:45.636Z,37.70
2019-05-01T09:35:46.731Z,37.00
2019-05-01T09:36:45.587Z,36.40
2019-05-01T09:37:45.566Z,38.50
2019-05-01T09:38:45.549Z,39.10
2019-05-01T09:39:47.323Z,37.80
2019-05-01T09:40:45.551Z,37.30
2019-05-01T09:41:47.500Z,37.70
2019-05-01T09:42:45.503Z,37.50
2019-05-01T09:43:45.522Z,36.50
2019-05-01T09:44:45.576Z,35.30
2019-05-01T09:45:45.531Z,36.00
2019-05-01T09:46:45.461Z,34.40
2019-05-01T09:47:45.523Z,37.00
2019-05-01T09:48:45.444Z,37.20
2019-05-01T09:49:48.740Z,35.60
2019-05-01T09:50:46.438Z,34.40
2019-05-01T09:51:47.484Z,36.60
2019-05-01T09:52:45.439Z,34.00
2019-05-01T09:53:45.383Z,35.50
2019-05-01T09:54:46.769Z,35.70
2019-05-01T09:55:45.351Z,36.50
2019-05-01T09:56:45.363Z,37.60
2019-05-01T09:57:45.347Z,38.00
2019-05-01T09:58:45.326Z,38.00
2019-05-01T09:59:45.343Z,36.10
2019-05-01T10:00:48.836Z,34.70
2019-05-01T10:01:46.372Z,35.70
2019-05-01T10:02:45.321Z,36.90
2019-05-01T10:03:49.438Z,36.10
2019-05-01T10:04:46.319Z,38.40
2019-05-01T10:05:45.263Z,34.40
2019-05-01T10:06:47.765Z,34.80
2019-05-01T10:07:46.255Z,37.30
2019-05-01T10:08:45.228Z,36.60
2019-05-01T10:09:47.301Z,37.60
2019-05-01T10:10:46.195Z,38.80
2019-05-01T10:11:45.195Z,38.10
2019-05-01T10:12:47.017Z,39.60
2019-05-01T10:13:45.215Z,39.80
2019-05-01T10:14:45.829Z,40.20
2019-05-01T10:15:45.232Z,40.00
2019-05-01T10:16:45.181Z,40.80
2019-05-01T10:17:45.122Z,42.20
2019-05-01T10:18:45.122Z,40.00
2019-05-01T10:19:45.201Z,41.40
2019-05-01T10:20:45.096Z,39.10
2019-05-01T10:21:45.087Z,38.40
2019-05-01T10:22:45.103Z,39.00
2019-05-01T10:23:47.163Z,38.80
2019-05-01T10:24:46.114Z,39.90
2019-05-01T10:25:47.893Z,38.10
2019-05-01T10:26:45.034Z,37.80
2019-05-01T10:27:45.066Z,38.20
2019-05-01T10:28:49.529Z,38.00
2019-05-01T10:29:46.037Z,38.10
2019-05-01T10:30:45.007Z,39.60
2019-05-01T10:31:46.666Z,40.30
2019-05-01T10:32:45.003Z,41.10
2019-05-01T10:33:44.952Z,40.80
2019-05-01T10:34:44.927Z,43.50
2019-05-01T10:35:45.036Z,41.10
2019-05-01T10:36:44.910Z,40.70
2019-05-01T10:37:44.905Z,40.10
2019-05-01T10:38:46.841Z,40.90
2019-05-01T10:39:44.941Z,41.80
2019-05-01T10:40:44.883Z,40.20
2019-05-01T10:41:46.436Z,38.90
2019-05-01T10:42:44.947Z,38.40
2019-05-01T10:43:44.982Z,40.10
2019-05-01T10:44:44.981Z,40.60
2019-05-01T10:45:44.982Z,40.20
2019-05-01T10:46:44.877Z,40.20
2019-05-01T10:47:44.797Z,38.40
2019-05-01T10:48:44.867Z,40.40
2019-05-01T10:49:44.796Z,41.30
2019-05-01T10:50:44.915Z,40.00
2019-05-01T10:51:44.790Z,40.80
2019-05-01T10:52:44.765Z,38.80
2019-05-01T10:53:44.726Z,39.60
2019-05-01T10:54:46.542Z,40.00
2019-05-01T10:55:44.793Z,39.80
2019-05-01T10:56:44.777Z,41.00
2019-05-01T10:57:44.715Z,39.70
2019-05-01T10:58:44.821Z,40.00
2019-05-01T10:59:44.659Z,37.70
2019-05-01T11:00:44.687Z,37.70
2019-05-01T11:01:44.779Z,36.90
2019-05-01T11:02:44.688Z,36.80
2019-05-01T11:03:45.220Z,36.40
2019-05-01T11:04:44.609Z,37.00
2019-05-01T11:05:55.220Z,39.20
2019-05-01T11:06:45.581Z,38.00
2019-05-01T11:07:44.799Z,40.00
2019-05-01T11:08:44.710Z,38.00
2019-05-01T11:09:44.537Z,38.00
2019-05-01T11:10:44.722Z,38.90
2019-05-01T11:11:44.593Z,36.50
2019-05-01T11:12:44.594Z,38.40
2019-05-01T11:13:44.503Z,39.00
2019-05-01T11:14:44.799Z,36.80
2019-05-01T11:15:44.520Z,39.70
2019-05-01T11:16:44.615Z,40.60
2019-05-01T11:17:44.453Z,37.00
2019-05-01T11:18:44.507Z,38.70
2019-05-01T11:19:44.499Z,39.10
2019-05-01T11:20:44.504Z,38.70
2019-05-01T11:21:44.456Z,35.80
2019-05-01T11:22:44.411Z,37.70
2019-05-01T11:23:44.621Z,37.10
2019-05-01T11:24:44.387Z,38.50
2019-05-01T11:25:44.690Z,37.80
2019-05-01T11:26:45.219Z,39.40
2019-05-01T11:27:44.373Z,37.20
2019-05-01T11:28:44.369Z,37.90
2019-05-01T11:29:44.759Z,37.50
2019-05-01T11:30:44.348Z,40.00
2019-05-01T11:31:44.323Z,38.00
2019-05-01T11:32:44.316Z,39.10
2019-05-01T11:33:44.288Z,40.10
2019-05-01T11:34:44.271Z,37.70
2019-05-01T11:35:44.382Z,38.60
2019-05-01T11:36:44.257Z,37.90
2019-05-01T11:37:44.241Z,40.20
2019-05-01T11:38:44.259Z,39.90
2019-05-01T11:39:44.229Z,39.50
2019-05-01T11:40:44.270Z,40.30
2019-05-01T11:41:44.236Z,40.40
2019-05-01T11:42:44.309Z,38.80
2019-05-01T11:43:44.238Z,40.30
2019-05-01T11:44:44.188Z,37.90
2019-05-01T11:45:44.265Z,39.90
2019-05-01T11:46:44.230Z,40.30
2019-05-01T11:47:44.143Z,41.70
2019-05-01T11:48:44.650Z,40.70
2019-05-01T11:49:44.159Z,39.90
2019-05-01T11:50:44.362Z,38.90
2019-05-01T11:51:45.728Z,40.70
2019-05-01T11:52:44.074Z,41.10
2019-05-01T11:53:44.062Z,41.20
2019-05-01T11:54:44.073Z,42.10
2019-05-01T11:55:44.053Z,40.30
2019-05-01T11:56:44.124Z,41.90
2019-05-01T11:57:44.023Z,36.70
2019-05-01T11:58:44.244Z,38.00
2019-05-01T11:59:43.995Z,39.40
2019-05-01T12:00:44.171Z,37.70
2019-05-01T12:01:44.085Z,37.40
2019-05-01T12:02:44.121Z,37.80
2019-05-01T12:03:44.057Z,38.40
2019-05-01T12:04:43.948Z,37.30
2019-05-01T12:05:43.951Z,37.70
2019-05-01T12:06:44.110Z,40.10
2019-05-01T12:07:44.201Z,37.40
2019-05-01T12:08:43.975Z,39.30
2019-05-01T12:09:43.924Z,40.10
2019-05-01T12:10:43.971Z,38.90
2019-05-01T12:11:43.975Z,40.10
2019-05-01T12:12:43.857Z,41.90
2019-05-01T12:13:44.247Z,37.30
2019-05-01T12:14:43.897Z,40.10
2019-05-01T12:15:43.911Z,41.40
2019-05-01T12:16:43.961Z,41.70
2019-05-01T12:17:44.028Z,40.90
2019-05-01T12:18:43.873Z,39.80
2019-05-01T12:19:43.788Z,43.90
2019-05-01T12:20:43.781Z,39.70
2019-05-01T12:21:43.950Z,39.20
2019-05-01T12:22:43.835Z,39.40
2019-05-01T12:23:43.893Z,41.30
2019-05-01T12:24:43.731Z,39.20
2019-05-01T12:25:43.751Z,42.20
2019-05-01T12:26:43.743Z,41.50
2019-05-01T12:27:43.838Z,40.40
2019-05-01T12:28:43.680Z,39.10
2019-05-01T12:29:43.786Z,37.80
2019-05-01T12:30:43.688Z,39.40
2019-05-01T12:31:43.719Z,38.00
2019-05-01T12:32:43.890Z,38.20
2019-05-01T12:33:43.721Z,40.80
2019-05-01T12:34:43.620Z,38.90
2019-05-01T12:35:43.709Z,40.70
2019-05-01T12:36:43.711Z,40.30
2019-05-01T12:37:43.620Z,40.80
2019-05-01T12:38:43.635Z,39.10
2019-05-01T12:39:43.656Z,40.90
2019-05-01T12:40:43.632Z,40.00
2019-05-01T12:41:43.663Z,40.10
2019-05-01T12:42:43.543Z,40.00
2019-05-01T12:43:43.658Z,40.50
2019-05-01T12:44:43.552Z,40.80
2019-05-01T12:45:43.580Z,39.70
2019-05-01T12:46:43.544Z,41.10
2019-05-01T12:47:43.472Z,40.90
2019-05-01T12:48:44.312Z,43.10
2019-05-01T12:49:43.543Z,42.20
2019-05-01T12:50:43.639Z,42.40
2019-05-01T12:51:43.493Z,43.60
2019-05-01T12:52:43.563Z,42.50